createdAt,value
2023-01-28T00:02:36.362Z,12.70
2023-01-28T00:05:26.713Z,13.70
2023-01-28T00:08:15.589Z,13.50
2023-01-28T00:11:06.070Z,11.90
2023-01-28T00:13:55.059Z,11.40
2023-01-28T00:16:43.831Z,11.40
2023-01-28T00:19:33.220Z,11.30
2023-01-28T00:22:22.603Z,12.30
2023-01-28T00:25:11.377Z,12.40
2023-01-28T00:28:00.212Z,12.20
2023-01-28T00:30:48.943Z,11.30
2023-01-28T00:33:37.788Z,11.60
2023-01-28T00:36:26.940Z,12.50
2023-01-28T00:39:15.742Z,12.50
2023-01-28T00:42:04.973Z,12.70
2023-01-28T00:44:53.629Z,12.60
2023-01-28T00:47:42.813Z,12.00
2023-01-28T00:50:31.392Z,14.10
2023-01-28T00:53:20.766Z,11.50
2023-01-28T00:56:12.442Z,13.50
2023-01-28T00:59:01.069Z,11.40
2023-01-28T01:01:50.322Z,13.00
2023-01-28T01:04:40.014Z,12.40
2023-01-28T01:07:34.840Z,11.50
2023-01-28T01:10:23.611Z,14.70
2023-01-28T01:13:12.392Z,12.50
2023-01-28T01:16:05.103Z,13.60
2023-01-28T01:18:54.176Z,15.70
2023-01-28T01:21:42.870Z,15.40
2023-01-28T01:24:35.011Z,10.90
2023-01-28T01:27:24.020Z,14.20
2023-01-28T01:30:14.037Z,14.30
2023-01-28T01:33:02.906Z,13.70
2023-01-28T01:35:57.660Z,13.50
2023-01-28T01:38:48.381Z,12.60
2023-01-28T01:41:37.899Z,13.10
2023-01-28T01:45:00.139Z,13.40
2023-01-28T01:48:06.232Z,10.70
2023-01-28T01:51:12.500Z,13.60
2023-01-28T01:54:02.918Z,11.80
2023-01-28T01:56:51.797Z,13.30
2023-01-28T01:59:40.485Z,12.70
2023-01-28T02:02:29.588Z,11.90
2023-01-28T02:05:20.292Z,11.80
2023-01-28T02:08:25.611Z,13.90
2023-01-28T02:11:14.583Z,11.90
2023-01-28T02:14:04.209Z,10.10
2023-01-28T02:16:53.166Z,11.40
2023-01-28T02:19:51.647Z,13.00
2023-01-28T02:22:59.337Z,11.50
2023-01-28T02:26:19.754Z,12.90
2023-01-28T02:29:44.829Z,11.40
2023-01-28T02:32:39.101Z,13.80
2023-01-28T02:35:50.628Z,12.30
2023-01-28T02:38:45.868Z,12.60
2023-01-28T02:41:41.223Z,13.30
2023-01-28T02:44:30.295Z,14.30
2023-01-28T02:47:38.561Z,12.20
2023-01-28T02:50:35.878Z,14.00
2023-01-28T02:53:43.314Z,14.70
2023-01-28T02:56:44.406Z,15.60
2023-01-28T02:59:37.289Z,14.00
2023-01-28T03:02:51.054Z,11.50
2023-01-28T03:05:58.304Z,12.90
2023-01-28T03:09:12.699Z,15.60
2023-01-28T03:12:23.928Z,13.30
2023-01-28T03:15:36.475Z,12.40
2023-01-28T03:19:10.693Z,13.40
2023-01-28T03:22:18.270Z,13.50
2023-01-28T03:25:28.701Z,17.20
2023-01-28T03:28:36.815Z,13.00
2023-01-28T03:31:44.510Z,12.00
2023-01-28T03:34:52.935Z,12.90
2023-01-28T03:37:42.326Z,13.70
2023-01-28T03:40:36.336Z,14.70
2023-01-28T03:43:25.390Z,14.30
2023-01-28T03:46:14.601Z,13.60
2023-01-28T03:49:03.294Z,10.90
2023-01-28T03:51:52.214Z,11.10
2023-01-28T03:54:40.978Z,13.00
2023-01-28T03:57:31.595Z,14.20
2023-01-28T04:00:22.004Z,13.60
2023-01-28T04:03:17.859Z,14.70
2023-01-28T04:06:13.810Z,12.40
2023-01-28T04:09:23.909Z,14.60
2023-01-28T04:12:39.912Z,15.70
2023-01-28T04:15:31.014Z,14.40
2023-01-28T04:18:27.219Z,13.70
2023-01-28T04:21:17.555Z,12.80
2023-01-28T04:24:06.579Z,15.90
2023-01-28T04:26:56.492Z,16.40
2023-01-28T04:29:45.760Z,15.80
2023-01-28T04:32:56.560Z,17.40
2023-01-28T04:35:59.287Z,14.50
2023-01-28T04:39:03.326Z,14.80
2023-01-28T04:41:57.772Z,16.80
2023-01-28T04:45:00.857Z,13.80
2023-01-28T04:48:08.008Z,12.80
2023-01-28T04:51:17.580Z,14.10
2023-01-28T04:57:24.272Z,14.40
2023-01-28T05:00:13.918Z,15.00
2023-01-28T05:03:02.592Z,16.00
2023-01-28T05:05:51.600Z,16.40
2023-01-28T05:08:49.397Z,14.80
2023-01-28T05:11:39.319Z,12.70
2023-01-28T05:14:29.343Z,14.10
2023-01-28T05:17:24.516Z,15.20
2023-01-28T05:20:14.325Z,15.10
2023-01-28T05:23:03.187Z,16.50
2023-01-28T05:26:04.178Z,16.10
2023-01-28T05:28:52.975Z,20.70
2023-01-28T05:31:41.927Z,15.40
2023-01-28T05:34:30.900Z,15.60
2023-01-28T05:37:22.458Z,16.00
2023-01-28T05:40:15.422Z,15.00
2023-01-28T05:43:04.331Z,14.50
2023-01-28T05:46:03.961Z,14.90
2023-01-28T05:49:12.494Z,14.10
2023-01-28T05:52:19.754Z,13.40
2023-01-28T05:55:09.035Z,15.70
2023-01-28T05:57:57.931Z,15.60
2023-01-28T06:00:48.212Z,13.90
2023-01-28T06:03:38.566Z,18.60
2023-01-28T06:06:27.618Z,17.00
2023-01-28T06:09:19.485Z,16.70
2023-01-28T06:12:08.296Z,16.40
2023-01-28T06:15:11.648Z,15.30
2023-01-28T06:18:21.335Z,17.10
2023-01-28T06:21:11.026Z,13.00
2023-01-28T06:24:00.160Z,14.20
2023-01-28T06:26:49.043Z,16.00
2023-01-28T06:29:37.754Z,17.30
2023-01-28T06:32:27.152Z,13.70
2023-01-28T06:35:18.441Z,16.00
2023-01-28T06:38:07.250Z,13.80
2023-01-28T06:40:56.220Z,14.60
2023-01-28T06:43:45.189Z,13.60
2023-01-28T06:46:34.416Z,14.60
2023-01-28T06:49:23.181Z,17.00
2023-01-28T06:52:11.830Z,14.70
2023-01-28T06:55:01.715Z,14.60
2023-01-28T06:57:50.545Z,15.40
2023-01-28T07:00:39.936Z,14.80
2023-01-28T07:03:28.833Z,16.30
2023-01-28T07:06:20.103Z,14.80
2023-01-28T07:09:08.875Z,11.60
2023-01-28T07:11:57.784Z,12.60
2023-01-28T07:14:46.535Z,13.70
2023-01-28T07:17:40.460Z,12.80
2023-01-28T07:20:31.565Z,12.50
2023-01-28T07:23:20.699Z,12.30
2023-01-28T07:26:09.397Z,13.10
2023-01-28T07:28:58.156Z,12.30
2023-01-28T07:31:46.967Z,15.20
2023-01-28T07:34:39.922Z,13.30
2023-01-28T07:37:28.760Z,12.10
2023-01-28T07:40:18.153Z,13.90
2023-01-28T07:43:07.295Z,13.50
2023-01-28T07:46:02.740Z,12.90
2023-01-28T07:48:51.519Z,12.00
2023-01-28T07:51:41.730Z,10.30
2023-01-28T07:54:30.986Z,13.60
2023-01-28T07:57:23.512Z,15.00
2023-01-28T08:00:13.079Z,13.70
2023-01-28T08:03:04.393Z,13.60
2023-01-28T08:05:55.057Z,14.50
2023-01-28T08:08:43.945Z,14.40
2023-01-28T08:11:33.325Z,12.90
2023-01-28T08:14:22.036Z,12.10
2023-01-28T08:17:10.788Z,13.80
2023-01-28T08:19:59.756Z,12.40
2023-01-28T08:22:49.693Z,14.30
2023-01-28T08:25:38.781Z,12.10
2023-01-28T08:28:27.737Z,13.20
2023-01-28T08:31:16.644Z,13.10
2023-01-28T08:34:05.381Z,11.40
2023-01-28T08:36:54.093Z,11.80
2023-01-28T08:39:44.306Z,12.50
2023-01-28T08:42:36.295Z,12.40
2023-01-28T08:45:27.784Z,13.10
2023-01-28T08:48:17.485Z,12.90
2023-01-28T08:51:06.145Z,12.80
2023-01-28T08:53:54.821Z,15.60
2023-01-28T08:56:44.954Z,13.40
2023-01-28T08:59:33.681Z,12.50
2023-01-28T09:02:31.535Z,13.30
2023-01-28T09:05:21.451Z,11.90
2023-01-28T09:08:15.077Z,14.50
2023-01-28T09:11:03.715Z,14.00
2023-01-28T09:13:52.453Z,14.00
2023-01-28T09:16:41.917Z,14.20
2023-01-28T09:19:30.609Z,15.80
2023-01-28T09:22:19.661Z,11.50
2023-01-28T09:25:08.898Z,13.90
2023-01-28T09:27:58.258Z,14.20
2023-01-28T09:30:47.055Z,15.00
2023-01-28T09:33:36.551Z,13.00
2023-01-28T09:36:25.285Z,13.50
2023-01-28T09:39:14.025Z,13.60
2023-01-28T09:42:06.033Z,12.80
2023-01-28T09:45:02.675Z,12.40
2023-01-28T09:47:52.815Z,13.80
2023-01-28T09:50:46.473Z,12.50
2023-01-28T09:53:39.511Z,12.60
2023-01-28T09:56:33.938Z,9.90
2023-01-28T09:59:22.966Z,11.90
2023-01-28T12:08:34.618Z,12.60
2023-01-28T12:11:57.505Z,11.70
2023-01-28T12:15:04.480Z,19.70
2023-01-28T12:18:00.074Z,13.90
2023-01-28T12:20:57.790Z,12.50
2023-01-28T12:23:55.746Z,11.50
2023-01-28T12:27:20.872Z,15.00
2023-01-28T12:30:19.415Z,21.30
2023-01-28T12:33:23.199Z,13.70
2023-01-28T12:36:16.830Z,15.20
2023-01-28T12:39:31.789Z,14.50
2023-01-28T12:42:43.675Z,11.20
2023-01-28T12:45:38.821Z,15.00
2023-01-28T12:48:34.337Z,14.20
2023-01-28T12:51:25.238Z,14.30
2023-01-28T12:54:19.363Z,14.30
2023-01-28T12:57:09.059Z,16.00
2023-01-28T12:59:59.392Z,12.90
2023-01-28T13:02:53.862Z,11.60
2023-01-28T13:05:46.810Z,15.60
2023-01-28T13:08:36.819Z,12.60
2023-01-28T13:11:25.614Z,13.50
2023-01-28T13:14:14.460Z,13.30
2023-01-28T13:17:11.054Z,14.80
2023-01-28T13:20:00.097Z,12.80
2023-01-28T13:22:48.704Z,11.50
2023-01-28T13:25:48.376Z,12.30
2023-01-28T13:28:37.072Z,11.70
2023-01-28T13:31:25.783Z,12.30
2023-01-28T13:34:36.526Z,10.70
2023-01-28T13:37:29.052Z,8.80
2023-01-28T13:40:28.413Z,9.50
2023-01-28T13:43:27.812Z,9.50
2023-01-28T13:46:29.479Z,9.10
2023-01-28T13:49:45.991Z,9.80
2023-01-28T13:52:37.983Z,9.70
2023-01-28T13:55:43.450Z,11.30
2023-01-28T13:59:02.500Z,13.20
2023-01-28T14:02:03.248Z,11.60
2023-01-28T14:04:52.013Z,12.00
2023-01-28T14:08:02.379Z,12.90
2023-01-28T14:10:59.193Z,12.40
2023-01-28T14:14:18.949Z,10.40
2023-01-28T14:17:15.109Z,12.20
2023-01-28T14:20:04.981Z,15.40
2023-01-28T14:22:59.671Z,15.20
2023-01-28T14:25:48.254Z,13.60
2023-01-28T14:28:42.008Z,10.90
2023-01-28T14:31:35.827Z,11.90
2023-01-28T14:34:28.192Z,10.50
2023-01-28T14:37:19.037Z,10.50
2023-01-28T14:40:08.613Z,12.60
2023-01-28T14:42:57.266Z,11.40
2023-01-28T14:45:49.108Z,10.10
2023-01-28T14:49:02.916Z,12.70
2023-01-28T14:52:29.221Z,14.20
2023-01-28T14:55:23.631Z,16.80
2023-01-28T14:58:25.026Z,15.80
2023-01-28T15:01:28.109Z,15.90
2023-01-28T15:04:30.771Z,13.50
2023-01-28T15:07:20.436Z,12.50
2023-01-28T15:10:33.078Z,12.60
2023-01-28T15:13:25.896Z,11.80
2023-01-28T15:16:20.853Z,12.40
2023-01-28T15:19:09.814Z,12.00
2023-01-28T15:22:04.478Z,18.20
2023-01-28T15:24:53.588Z,19.90
2023-01-28T15:27:42.267Z,14.60
2023-01-28T15:30:32.080Z,20.90
2023-01-28T15:33:21.398Z,19.30
2023-01-28T15:36:10.341Z,17.30
2023-01-28T15:38:59.473Z,15.30
2023-01-28T15:41:52.612Z,12.30
2023-01-28T15:44:44.869Z,13.20
2023-01-28T15:47:33.880Z,12.20
2023-01-28T15:50:24.143Z,14.20
2023-01-28T15:53:14.394Z,13.40
2023-01-28T15:56:08.277Z,14.70
2023-01-28T15:59:02.577Z,13.50
2023-01-28T18:05:18.165Z,9.10
2023-01-28T18:08:10.049Z,11.10
2023-01-28T18:11:12.847Z,9.20
2023-01-28T18:14:01.800Z,8.50
2023-01-28T18:16:50.596Z,9.20
2023-01-28T18:19:39.350Z,9.50
2023-01-28T18:22:28.097Z,9.00
2023-01-28T18:25:20.447Z,9.10
2023-01-28T18:28:09.209Z,8.50
2023-01-28T18:31:05.257Z,9.30
2023-01-28T18:33:58.747Z,8.80
2023-01-28T18:36:47.746Z,6.60
2023-01-28T18:39:36.675Z,9.10
2023-01-28T18:42:25.514Z,9.70
2023-01-28T18:45:15.207Z,8.30
2023-01-28T18:48:04.265Z,8.90
2023-01-28T18:50:54.443Z,9.00
2023-01-28T18:53:43.634Z,9.20
2023-01-28T18:56:33.700Z,10.80
2023-01-28T18:59:22.622Z,20.90
2023-01-28T19:02:13.279Z,30.30
2023-01-28T19:05:02.202Z,20.80
2023-01-28T19:07:50.918Z,13.50
2023-01-28T19:10:39.535Z,18.20
2023-01-28T19:13:28.871Z,12.10
2023-01-28T19:16:18.097Z,11.00
2023-01-28T19:19:06.997Z,11.80
2023-01-28T19:21:55.877Z,11.40
2023-01-28T19:24:44.705Z,10.50
2023-01-28T19:27:33.666Z,9.90
2023-01-28T19:30:22.487Z,9.60
2023-01-28T19:33:12.634Z,8.50
2023-01-28T19:36:01.575Z,10.30
2023-01-28T19:38:50.335Z,9.60
2023-01-28T19:41:39.615Z,10.00
2023-01-28T19:44:29.272Z,9.20
2023-01-28T19:47:18.031Z,9.20
2023-01-28T19:50:07.519Z,9.20
2023-01-28T19:52:56.784Z,9.50
2023-01-28T19:55:45.545Z,9.10
2023-01-28T19:58:36.562Z,9.80
2023-01-28T20:01:29.681Z,10.30
2023-01-28T20:04:19.030Z,9.80
2023-01-28T20:07:07.933Z,9.40
2023-01-28T20:09:56.810Z,8.90
2023-01-28T20:12:45.789Z,10.60
2023-01-28T20:15:34.837Z,9.80
2023-01-28T20:18:23.596Z,9.70
2023-01-28T20:21:12.248Z,9.60
2023-01-28T20:24:01.477Z,9.90
2023-01-28T20:26:50.240Z,9.30
2023-01-28T20:29:39.278Z,8.80
2023-01-28T20:32:28.029Z,9.70
2023-01-28T20:35:17.376Z,9.70
2023-01-28T20:38:06.505Z,11.10
2023-01-28T20:40:55.352Z,9.60
2023-01-28T20:43:45.430Z,9.50
2023-01-28T20:46:36.816Z,10.40
2023-01-28T20:49:28.016Z,10.40
2023-01-28T20:52:17.226Z,9.00
2023-01-28T20:55:08.054Z,10.70
2023-01-28T20:57:56.774Z,10.20
2023-01-28T21:00:46.874Z,10.50
2023-01-28T21:03:35.890Z,10.20
2023-01-28T21:06:25.162Z,9.50
2023-01-28T21:09:14.112Z,8.50
2023-01-28T21:12:04.054Z,10.20
2023-01-28T21:14:53.010Z,9.90
2023-01-28T21:17:42.156Z,10.90
2023-01-28T21:20:32.102Z,9.50
2023-01-28T21:23:23.407Z,11.70
2023-01-28T21:26:12.416Z,9.60
2023-01-28T21:29:01.275Z,8.40
2023-01-28T21:31:50.109Z,10.50
2023-01-28T21:34:39.239Z,11.10
2023-01-28T21:37:28.028Z,10.80
2023-01-28T21:40:18.705Z,9.00
2023-01-28T21:43:07.694Z,9.70
2023-01-28T21:45:57.294Z,10.20
2023-01-28T21:48:46.911Z,9.90
2023-01-28T21:51:36.477Z,10.10
2023-01-28T21:54:26.213Z,10.90
2023-01-28T21:57:14.910Z,9.20
2023-01-28T22:00:04.680Z,10.40
2023-01-28T22:03:00.256Z,10.50
2023-01-28T22:05:55.260Z,8.50
2023-01-28T22:08:43.982Z,10.60
2023-01-28T22:11:36.494Z,9.30
2023-01-28T22:14:30.472Z,10.30
2023-01-28T22:17:19.270Z,10.90
2023-01-28T22:20:10.151Z,9.50
2023-01-28T22:22:58.821Z,9.50
2023-01-28T22:25:47.645Z,9.90
2023-01-28T22:28:37.972Z,9.40
2023-01-28T22:31:28.084Z,9.20
2023-01-28T22:34:16.934Z,9.40
2023-01-28T22:37:07.302Z,8.40
2023-01-28T22:39:56.309Z,7.50
2023-01-28T22:42:48.022Z,7.80
2023-01-28T22:45:36.680Z,8.30
2023-01-28T22:48:25.364Z,9.30
2023-01-28T22:51:21.599Z,9.10
2023-01-28T22:54:14.964Z,8.60
2023-01-28T22:57:03.771Z,7.80
2023-01-28T23:00:00.073Z,8.50
2023-01-28T23:02:49.481Z,8.80
2023-01-28T23:05:38.562Z,8.50
2023-01-28T23:08:29.151Z,7.90
2023-01-28T23:11:25.674Z,8.30
2023-01-28T23:14:33.564Z,6.90
2023-01-28T23:17:41.094Z,7.30
2023-01-28T23:20:48.324Z,8.30
2023-01-28T23:23:55.415Z,6.10
2023-01-28T23:26:45.224Z,8.00
2023-01-28T23:29:37.177Z,8.80
2023-01-28T23:32:26.375Z,7.60
2023-01-28T23:35:15.132Z,5.90
2023-01-28T23:38:03.887Z,7.00
2023-01-28T23:40:52.550Z,6.80
2023-01-28T23:43:41.663Z,7.30
2023-01-28T23:46:39.551Z,7.80
2023-01-28T23:49:28.992Z,7.20
2023-01-28T23:52:17.817Z,7.40
2023-01-28T23:55:06.849Z,6.20
2023-01-28T23:57:55.615Z,8.40
